sensor_id;sensor_type;location;lat;lon;timestamp;pressure;altitude;pressure_sealevel;temperature;humidity
59829;BME280;45708;51.848;107.620;2023-03-26T00:02:17;94864.09;;;-3.29;50.64
59829;BME280;45708;51.848;107.620;2023-03-26T00:07:18;94806.00;;;-3.52;50.96
59829;BME280;45708;51.848;107.620;2023-03-26T00:12:20;94789.41;;;-3.40;50.49
59829;BME280;45708;51.848;107.620;2023-03-26T00:17:22;94784.22;;;-3.40;49.92
59829;BME280;45708;51.848;107.620;2023-03-26T00:22:24;94722.28;;;-3.50;49.46
59829;BME280;45708;51.848;107.620;2023-03-26T00:27:25;94862.88;;;-2.33;50.17
59829;BME280;45708;51.848;107.620;2023-03-26T00:32:27;94873.16;;;-1.88;49.18
59829;BME280;45708;51.848;107.620;2023-03-26T00:37:28;94868.28;;;-1.55;48.43
59829;BME280;45708;51.848;107.620;2023-03-26T00:42:29;94794.91;;;-1.81;47.29
59829;BME280;45708;51.848;107.620;2023-03-26T00:47:30;94891.28;;;-1.08;46.71
59829;BME280;45708;51.848;107.620;2023-03-26T00:52:31;94803.97;;;-1.34;45.97
59829;BME280;45708;51.848;107.620;2023-03-26T00:57:32;94797.41;;;-0.86;44.39
59829;BME280;45708;51.848;107.620;2023-03-26T01:02:33;94793.25;;;0.20;43.28
59829;BME280;45708;51.848;107.620;2023-03-26T01:07:35;94793.59;;;2.59;39.09
59829;BME280;45708;51.848;107.620;2023-03-26T01:12:36;94880.84;;;4.33;37.03
59829;BME280;45708;51.848;107.620;2023-03-26T01:17:38;94774.50;;;3.25;37.17
59829;BME280;45708;51.848;107.620;2023-03-26T01:22:47;94808.69;;;3.45;38.04
59829;BME280;45708;51.848;107.620;2023-03-26T01:27:53;94677.88;;;4.60;33.84
59829;BME280;45708;51.848;107.620;2023-03-26T01:33:03;94898.44;;;5.66;33.52
59829;BME280;45708;51.848;107.620;2023-03-26T01:48:38;94792.03;;;2.12;36.39
59829;BME280;45708;51.848;107.620;2023-03-26T01:53:45;94770.78;;;1.77;35.87
59829;BME280;45708;51.848;107.620;2023-03-26T02:09:28;94905.72;;;2.59;36.71
59829;BME280;45708;51.848;107.620;2023-03-26T02:14:30;94906.22;;;2.62;36.42
59829;BME280;45708;51.848;107.620;2023-03-26T02:19:31;94876.69;;;2.16;36.14
59829;BME280;45708;51.848;107.620;2023-03-26T02:24:32;94918.56;;;2.14;36.98
59829;BME280;45708;51.848;107.620;2023-03-26T02:29:34;94919.41;;;2.07;37.34
59829;BME280;45708;51.848;107.620;2023-03-26T02:35:04;94927.94;;;2.01;37.91
59829;BME280;45708;51.848;107.620;2023-03-26T02:40:06;94917.16;;;2.04;37.89
59829;BME280;45708;51.848;107.620;2023-03-26T02:45:10;94926.47;;;2.29;36.89
59829;BME280;45708;51.848;107.620;2023-03-26T02:50:20;94689.31;;;0.84;37.36
59829;BME280;45708;51.848;107.620;2023-03-26T02:55:24;94833.09;;;2.10;37.41
59829;BME280;45708;51.848;107.620;2023-03-26T03:00:27;94812.81;;;2.43;37.16
59829;BME280;45708;51.848;107.620;2023-03-26T03:05:29;94908.44;;;3.26;36.95
59829;BME280;45708;51.848;107.620;2023-03-26T03:10:31;94738.22;;;2.57;36.29
59829;BME280;45708;51.848;107.620;2023-03-26T03:15:35;94870.63;;;3.51;36.24
59829;BME280;45708;51.848;107.620;2023-03-26T03:20:36;94868.34;;;3.78;35.25
59829;BME280;45708;51.848;107.620;2023-03-26T03:25:37;94744.34;;;3.23;35.97
59829;BME280;45708;51.848;107.620;2023-03-26T03:30:38;94800.31;;;3.86;35.67
59829;BME280;45708;51.848;107.620;2023-03-26T03:35:40;94822.63;;;4.03;36.13
59829;BME280;45708;51.848;107.620;2023-03-26T03:40:42;94777.19;;;4.25;35.46
59829;BME280;45708;51.848;107.620;2023-03-26T03:45:43;94789.91;;;4.28;34.84
59829;BME280;45708;51.848;107.620;2023-03-26T03:50:44;94768.59;;;3.89;35.37
59829;BME280;45708;51.848;107.620;2023-03-26T03:55:45;94759.75;;;3.90;35.16
59829;BME280;45708;51.848;107.620;2023-03-26T04:00:51;94696.25;;;3.68;35.05
59829;BME280;45708;51.848;107.620;2023-03-26T04:05:55;94616.78;;;3.20;34.99
59829;BME280;45708;51.848;107.620;2023-03-26T04:10:58;94614.84;;;3.43;35.04
59829;BME280;45708;51.848;107.620;2023-03-26T04:15:59;94861.72;;;5.25;34.46
59829;BME280;45708;51.848;107.620;2023-03-26T04:21:00;94832.03;;;5.45;34.02
59829;BME280;45708;51.848;107.620;2023-03-26T04:26:03;94871.06;;;5.75;34.06
59829;BME280;45708;51.848;107.620;2023-03-26T04:31:11;94875.88;;;5.71;34.21
59829;BME280;45708;51.848;107.620;2023-03-26T04:36:15;94609.31;;;4.37;34.19
59829;BME280;45708;51.848;107.620;2023-03-26T04:41:16;94854.41;;;5.89;34.21
59829;BME280;45708;51.848;107.620;2023-03-26T04:46:19;94859.91;;;5.60;34.49
59829;BME280;45708;51.848;107.620;2023-03-26T04:51:24;94854.59;;;5.18;34.84
59829;BME280;45708;51.848;107.620;2023-03-26T05:01:35;94859.66;;;5.55;34.47
59829;BME280;45708;51.848;107.620;2023-03-26T05:06:36;94853.78;;;5.87;34.50
59829;BME280;45708;51.848;107.620;2023-03-26T05:11:37;94849.94;;;5.83;34.66
59829;BME280;45708;51.848;107.620;2023-03-26T05:16:38;94843.47;;;6.27;34.67
59829;BME280;45708;51.848;107.620;2023-03-26T05:21:39;94839.88;;;6.48;34.58
59829;BME280;45708;51.848;107.620;2023-03-26T05:26:41;94838.09;;;6.75;34.37
59829;BME280;45708;51.848;107.620;2023-03-26T05:31:42;94837.50;;;6.86;34.85
59829;BME280;45708;51.848;107.620;2023-03-26T05:36:43;94828.97;;;7.30;34.74
59829;BME280;45708;51.848;107.620;2023-03-26T05:41:44;94827.78;;;7.06;34.69
59829;BME280;45708;51.848;107.620;2023-03-26T05:46:45;94811.00;;;7.00;35.16
59829;BME280;45708;51.848;107.620;2023-03-26T05:51:45;94820.09;;;6.45;35.56
59829;BME280;45708;51.848;107.620;2023-03-26T05:56:47;94819.16;;;5.98;37.32
59829;BME280;45708;51.848;107.620;2023-03-26T06:01:48;94822.59;;;5.58;36.84
59829;BME280;45708;51.848;107.620;2023-03-26T06:06:49;94810.47;;;5.43;37.76
59829;BME280;45708;51.848;107.620;2023-03-26T06:11:50;94804.31;;;5.30;37.79
59829;BME280;45708;51.848;107.620;2023-03-26T06:16:51;94808.84;;;5.42;37.57
59829;BME280;45708;51.848;107.620;2023-03-26T06:21:52;94807.28;;;5.55;37.75
59829;BME280;45708;51.848;107.620;2023-03-26T06:26:52;94793.78;;;5.58;38.28
59829;BME280;45708;51.848;107.620;2023-03-26T06:31:53;94779.13;;;5.70;38.07
59829;BME280;45708;51.848;107.620;2023-03-26T06:36:54;94784.78;;;5.80;38.19
59829;BME280;45708;51.848;107.620;2023-03-26T06:41:55;94770.59;;;6.09;37.59
59829;BME280;45708;51.848;107.620;2023-03-26T06:46:56;94764.75;;;6.07;37.92
59829;BME280;45708;51.848;107.620;2023-03-26T06:51:56;94774.25;;;6.28;37.25
59829;BME280;45708;51.848;107.620;2023-03-26T06:56:57;94768.00;;;6.29;37.30
59829;BME280;45708;51.848;107.620;2023-03-26T07:01:58;94771.47;;;6.49;37.91
59829;BME280;45708;51.848;107.620;2023-03-26T07:06:59;94755.72;;;6.56;37.58
59829;BME280;45708;51.848;107.620;2023-03-26T07:12:00;94755.13;;;6.47;37.28
59829;BME280;45708;51.848;107.620;2023-03-26T07:17:01;94748.22;;;6.39;37.19
59829;BME280;45708;51.848;107.620;2023-03-26T07:22:01;94752.03;;;6.10;37.41
59829;BME280;45708;51.848;107.620;2023-03-26T07:32:48;94745.03;;;6.44;37.36
59829;BME280;45708;51.848;107.620;2023-03-26T07:48:40;94717.97;;;6.24;38.25
59829;BME280;45708;51.848;107.620;2023-03-26T07:53:41;94724.81;;;6.38;38.32
59829;BME280;45708;51.848;107.620;2023-03-26T07:58:57;94719.38;;;6.33;37.99
59829;BME280;45708;51.848;107.620;2023-03-26T08:25:28;94700.81;;;6.15;37.54
59829;BME280;45708;51.848;107.620;2023-03-26T08:30:31;94702.63;;;6.14;38.07
59829;BME280;45708;51.848;107.620;2023-03-26T08:35:32;94690.13;;;6.09;38.03
59829;BME280;45708;51.848;107.620;2023-03-26T08:45:44;94690.50;;;6.20;37.43
59829;BME280;45708;51.848;107.620;2023-03-26T08:51:15;94680.44;;;6.17;38.08
59829;BME280;45708;51.848;107.620;2023-03-26T08:56:37;94687.50;;;6.16;37.42
59829;BME280;45708;51.848;107.620;2023-03-26T09:23:29;94676.22;;;6.02;38.00
59829;BME280;45708;51.848;107.620;2023-03-26T09:39:01;94676.88;;;5.43;38.36
59829;BME280;45708;51.848;107.620;2023-03-26T09:44:27;94678.94;;;5.61;37.82
59829;BME280;45708;51.848;107.620;2023-03-26T09:49:50;94668.66;;;5.66;38.11
59829;BME280;45708;51.848;107.620;2023-03-26T10:10:38;94650.91;;;5.62;36.92
59829;BME280;45708;51.848;107.620;2023-03-26T10:20:48;94660.56;;;5.48;37.16
59829;BME280;45708;51.848;107.620;2023-03-26T10:26:18;94656.06;;;5.35;37.81
59829;BME280;45708;51.848;107.620;2023-03-26T10:42:40;94665.78;;;4.59;38.19
59829;BME280;45708;51.848;107.620;2023-03-26T10:48:07;94676.31;;;4.38;38.65
59829;BME280;45708;51.848;107.620;2023-03-26T10:58:27;94674.91;;;3.86;39.64
59829;BME280;45708;51.848;107.620;2023-03-26T11:03:51;94679.88;;;3.59;40.54
59829;BME280;45708;51.848;107.620;2023-03-26T11:09:18;94689.66;;;3.36;41.01
59829;BME280;45708;51.848;107.620;2023-03-26T11:14:26;94693.72;;;3.02;42.86
59829;BME280;45708;51.848;107.620;2023-03-26T11:25:36;94706.03;;;2.50;42.78
59829;BME280;45708;51.848;107.620;2023-03-26T11:40:30;94700.63;;;1.99;44.58
59829;BME280;45708;51.848;107.620;2023-03-26T11:45:39;94709.56;;;1.81;45.27
59829;BME280;45708;51.848;107.620;2023-03-26T11:50:44;94715.25;;;1.62;46.10
59829;BME280;45708;51.848;107.620;2023-03-26T11:56:15;94711.75;;;1.47;46.06
59829;BME280;45708;51.848;107.620;2023-03-26T12:01:38;94717.00;;;1.39;46.63
59829;BME280;45708;51.848;107.620;2023-03-26T12:07:07;94723.53;;;1.35;46.14
59829;BME280;45708;51.848;107.620;2023-03-26T12:12:10;94731.38;;;1.27;46.84
59829;BME280;45708;51.848;107.620;2023-03-26T12:22:32;94723.44;;;1.51;47.55
59829;BME280;45708;51.848;107.620;2023-03-26T12:27:33;94718.38;;;1.80;46.18
59829;BME280;45708;51.848;107.620;2023-03-26T12:32:40;94717.31;;;1.90;46.57
59829;BME280;45708;51.848;107.620;2023-03-26T12:37:41;94718.72;;;2.00;46.17
59829;BME280;45708;51.848;107.620;2023-03-26T12:42:50;94717.06;;;1.76;47.45
59829;BME280;45708;51.848;107.620;2023-03-26T12:47:52;94724.03;;;1.61;47.43
59829;BME280;45708;51.848;107.620;2023-03-26T13:09:12;94723.22;;;1.83;45.67
59829;BME280;45708;51.848;107.620;2023-03-26T13:30:30;94727.28;;;1.01;48.13
59829;BME280;45708;51.848;107.620;2023-03-26T13:35:48;94733.91;;;0.65;48.96
59829;BME280;45708;51.848;107.620;2023-03-26T13:46:20;94711.75;;;0.13;49.98
59829;BME280;45708;51.848;107.620;2023-03-26T13:56:46;94706.72;;;-0.29;51.18
59829;BME280;45708;51.848;107.620;2023-03-26T14:02:02;94723.91;;;-0.44;52.32
59829;BME280;45708;51.848;107.620;2023-03-26T14:07:12;94723.09;;;-0.53;52.86
59829;BME280;45708;51.848;107.620;2023-03-26T14:12:56;94723.06;;;-0.61;52.68
59829;BME280;45708;51.848;107.620;2023-03-26T14:23:33;94731.28;;;-0.82;54.05
59829;BME280;45708;51.848;107.620;2023-03-26T14:29:08;94743.28;;;-0.81;53.31
59829;BME280;45708;51.848;107.620;2023-03-26T14:44:55;94754.28;;;-0.87;53.98
59829;BME280;45708;51.848;107.620;2023-03-26T15:12:19;94736.56;;;-0.49;54.50
59829;BME280;45708;51.848;107.620;2023-03-26T15:34:17;94731.38;;;-0.33;53.94
59829;BME280;45708;51.848;107.620;2023-03-26T15:45:14;94727.78;;;-0.48;54.26
59829;BME280;45708;51.848;107.620;2023-03-26T16:06:29;94711.50;;;-0.91;55.45
59829;BME280;45708;51.848;107.620;2023-03-26T16:11:53;94704.22;;;-0.87;55.15
59829;BME280;45708;51.848;107.620;2023-03-26T16:16:57;94696.25;;;-0.94;54.96
59829;BME280;45708;51.848;107.620;2023-03-26T16:22:05;94705.00;;;-0.95;55.00
59829;BME280;45708;51.848;107.620;2023-03-26T16:27:27;94702.59;;;-0.80;56.33
59829;BME280;45708;51.848;107.620;2023-03-26T16:32:43;94705.34;;;-0.82;56.16
59829;BME280;45708;51.848;107.620;2023-03-26T16:37:49;94698.22;;;-0.88;56.54
59829;BME280;45708;51.848;107.620;2023-03-26T16:48:24;94694.81;;;-0.80;56.83
59829;BME280;45708;51.848;107.620;2023-03-26T16:59:16;94709.84;;;-1.00;56.01
59829;BME280;45708;51.848;107.620;2023-03-26T17:04:29;94692.81;;;-1.45;57.46
59829;BME280;45708;51.848;107.620;2023-03-26T17:15:11;94699.91;;;-1.55;57.78
59829;BME280;45708;51.848;107.620;2023-03-26T17:20:18;94698.97;;;-1.46;56.90
59829;BME280;45708;51.848;107.620;2023-03-26T17:26:10;94686.34;;;-1.41;57.43
59829;BME280;45708;51.848;107.620;2023-03-26T17:41:12;94678.41;;;-1.05;57.09
59829;BME280;45708;51.848;107.620;2023-03-26T17:46:36;94666.72;;;-1.01;56.49
59829;BME280;45708;51.848;107.620;2023-03-26T17:51:41;94676.66;;;-0.97;57.18
59829;BME280;45708;51.848;107.620;2023-03-26T17:56:46;94667.59;;;-0.93;56.99
59829;BME280;45708;51.848;107.620;2023-03-26T18:01:51;94676.13;;;-1.00;57.26
59829;BME280;45708;51.848;107.620;2023-03-26T18:28:40;94649.56;;;-1.10;57.93
59829;BME280;45708;51.848;107.620;2023-03-26T18:33:43;94644.00;;;-1.24;58.36
59829;BME280;45708;51.848;107.620;2023-03-26T18:38:45;94621.47;;;-1.31;58.72
59829;BME280;45708;51.848;107.620;2023-03-26T18:43:46;94625.53;;;-1.29;58.42
59829;BME280;45708;51.848;107.620;2023-03-26T18:48:47;94635.09;;;-1.29;59.11
59829;BME280;45708;51.848;107.620;2023-03-26T18:53:51;94633.03;;;-1.17;59.01
59829;BME280;45708;51.848;107.620;2023-03-26T18:58:56;94623.59;;;-1.27;58.96
59829;BME280;45708;51.848;107.620;2023-03-26T19:04:00;94633.31;;;-1.20;59.65
59829;BME280;45708;51.848;107.620;2023-03-26T19:09:03;94629.31;;;-1.15;58.95
59829;BME280;45708;51.848;107.620;2023-03-26T19:14:07;94626.81;;;-1.33;59.50
59829;BME280;45708;51.848;107.620;2023-03-26T19:19:19;94623.25;;;-1.40;59.42
59829;BME280;45708;51.848;107.620;2023-03-26T19:24:21;94614.69;;;-1.32;59.58
59829;BME280;45708;51.848;107.620;2023-03-26T19:29:27;94622.78;;;-1.35;59.66
59829;BME280;45708;51.848;107.620;2023-03-26T19:34:38;94627.09;;;-1.44;59.06
59829;BME280;45708;51.848;107.620;2023-03-26T19:39:42;94627.41;;;-1.47;59.70
59829;BME280;45708;51.848;107.620;2023-03-26T19:44:43;94630.34;;;-1.42;60.57
59829;BME280;45708;51.848;107.620;2023-03-26T19:49:59;94629.06;;;-1.38;60.52
59829;BME280;45708;51.848;107.620;2023-03-26T19:55:02;94628.88;;;-1.44;60.20
59829;BME280;45708;51.848;107.620;2023-03-26T20:00:11;94617.69;;;-1.53;60.34
59829;BME280;45708;51.848;107.620;2023-03-26T20:05:22;94629.19;;;-1.56;60.88
59829;BME280;45708;51.848;107.620;2023-03-26T20:10:24;94619.94;;;-1.58;61.02
59829;BME280;45708;51.848;107.620;2023-03-26T20:15:27;94626.44;;;-1.54;61.03
59829;BME280;45708;51.848;107.620;2023-03-26T20:20:30;94615.69;;;-1.67;60.56
59829;BME280;45708;51.848;107.620;2023-03-26T20:25:33;94615.50;;;-1.74;61.96
59829;BME280;45708;51.848;107.620;2023-03-26T20:30:33;94619.41;;;-1.70;61.10
59829;BME280;45708;51.848;107.620;2023-03-26T20:35:34;94624.41;;;-1.68;61.38
59829;BME280;45708;51.848;107.620;2023-03-26T20:40:35;94626.97;;;-1.76;61.75
59829;BME280;45708;51.848;107.620;2023-03-26T20:45:36;94622.03;;;-1.96;62.54
59829;BME280;45708;51.848;107.620;2023-03-26T20:50:38;94625.50;;;-2.13;62.88
59829;BME280;45708;51.848;107.620;2023-03-26T20:55:39;94622.56;;;-2.18;62.51
59829;BME280;45708;51.848;107.620;2023-03-26T21:00:40;94641.31;;;-2.16;62.54
59829;BME280;45708;51.848;107.620;2023-03-26T21:05:42;94630.59;;;-2.21;62.27
59829;BME280;45708;51.848;107.620;2023-03-26T21:10:44;94636.88;;;-2.24;62.48
59829;BME280;45708;51.848;107.620;2023-03-26T21:15:45;94631.97;;;-2.35;63.74
59829;BME280;45708;51.848;107.620;2023-03-26T21:20:57;94625.28;;;-2.46;63.44
59829;BME280;45708;51.848;107.620;2023-03-26T21:26:20;94636.69;;;-2.56;63.17
59829;BME280;45708;51.848;107.620;2023-03-26T21:31:28;94642.06;;;-2.67;63.21
59829;BME280;45708;51.848;107.620;2023-03-26T21:36:29;94637.97;;;-2.78;63.18
59829;BME280;45708;51.848;107.620;2023-03-26T21:41:49;94646.88;;;-2.90;63.76
59829;BME280;45708;51.848;107.620;2023-03-26T21:46:50;94656.34;;;-2.99;63.87
59829;BME280;45708;51.848;107.620;2023-03-26T21:51:51;94650.28;;;-3.08;64.18
59829;BME280;45708;51.848;107.620;2023-03-26T21:57:04;94657.13;;;-3.16;63.83
59829;BME280;45708;51.848;107.620;2023-03-26T22:02:26;94662.00;;;-3.13;63.86
59829;BME280;45708;51.848;107.620;2023-03-26T22:07:46;94660.97;;;-3.20;63.88
59829;BME280;45708;51.848;107.620;2023-03-26T22:12:49;94665.81;;;-3.35;64.70
59829;BME280;45708;51.848;107.620;2023-03-26T22:17:50;94658.25;;;-3.46;64.51
59829;BME280;45708;51.848;107.620;2023-03-26T22:22:51;94664.19;;;-3.36;64.78
59829;BME280;45708;51.848;107.620;2023-03-26T22:27:52;94676.63;;;-3.49;64.06
59829;BME280;45708;51.848;107.620;2023-03-26T22:32:53;94677.50;;;-3.58;64.77
59829;BME280;45708;51.848;107.620;2023-03-26T22:37:53;94676.13;;;-3.62;64.62
59829;BME280;45708;51.848;107.620;2023-03-26T22:42:54;94676.72;;;-3.69;64.50
59829;BME280;45708;51.848;107.620;2023-03-26T22:47:55;94690.56;;;-3.70;65.47
59829;BME280;45708;51.848;107.620;2023-03-26T22:52:56;94686.19;;;-3.59;64.72
59829;BME280;45708;51.848;107.620;2023-03-26T22:57:57;94688.94;;;-3.43;64.56
59829;BME280;45708;51.848;107.620;2023-03-26T23:02:58;94692.31;;;-3.33;64.56
59829;BME280;45708;51.848;107.620;2023-03-26T23:07:59;94694.16;;;-3.25;64.98
59829;BME280;45708;51.848;107.620;2023-03-26T23:12:59;94681.56;;;-3.11;64.55
59829;BME280;45708;51.848;107.620;2023-03-26T23:18:00;94689.66;;;-2.96;64.29
59829;BME280;45708;51.848;107.620;2023-03-26T23:23:01;94687.06;;;-2.78;63.94
59829;BME280;45708;51.848;107.620;2023-03-26T23:28:02;94696.31;;;-2.58;63.46
59829;BME280;45708;51.848;107.620;2023-03-26T23:33:03;94690.34;;;-1.89;64.02
59829;BME280;45708;51.848;107.620;2023-03-26T23:38:03;94686.94;;;0.03;60.51
59829;BME280;45708;51.848;107.620;2023-03-26T23:43:04;94680.03;;;1.20;58.03
59829;BME280;45708;51.848;107.620;2023-03-26T23:48:05;94686.41;;;2.98;53.66
59829;BME280;45708;51.848;107.620;2023-03-26T23:53:06;94679.50;;;4.61;49.86
59829;BME280;45708;51.848;107.620;2023-03-26T23:58:07;94682.97;;;5.77;46.94
